Time;durP1;ratioP1;P1;durP2;ratioP2;P2;SDS_P1;SDS_P2;PMS_P1;PMS_P2;Temp;Humidity;BMP_temperature;BMP_pressure;BME280_temperature;BME280_humidity;BME280_pressure;Samples;Min_cycle;Max_cycle;Signal;HPM_P1;HPM_P2
2023/06/28 00:01:21;;;;;;;11.40;3.78;;;;;;;;;;5090974;28;20131;-76
2023/06/28 00:03:49;;;;;;;9.38;3.90;;;;;;;;;;5090666;28;20093;-76
2023/06/28 00:06:15;;;;;;;9.10;3.42;;;;;;;;;;5091118;28;20564;-76
2023/06/28 00:08:41;;;;;;;8.63;3.55;;;;;;;;;;5074240;28;20452;-76
2023/06/28 00:11:10;;;;;;;9.43;4.35;;;;;;;;;;5073330;28;20044;-76
2023/06/28 00:13:36;;;;;;;10.07;3.45;;;;;;;;;;5090825;28;20127;-76
2023/06/28 00:16:02;;;;;;;9.18;3.50;;;;;;;;;;5073815;28;20388;-76
2023/06/28 00:18:30;;;;;;;7.90;3.47;;;;;;;;;;5090766;28;20115;-76
2023/06/28 00:20:56;;;;;;;8.82;3.90;;;;;;;;;;5090997;28;20553;-76
2023/06/28 00:23:22;;;;;;;9.35;3.08;;;;;;;;;;5093776;28;20067;-76
2023/06/28 00:25:48;;;;;;;9.93;4.50;;;;;;;;;;5094810;28;20047;-76
2023/06/28 00:28:15;;;;;;;7.60;3.88;;;;;;;;;;5073635;28;20041;-76
2023/06/28 00:30:41;;;;;;;8.85;3.33;;;;;;;;;;5084563;28;20044;-76
2023/06/28 00:33:08;;;;;;;9.45;3.35;;;;;;;;;;5077233;28;20061;-76
2023/06/28 00:35:34;;;;;;;11.00;3.05;;;;;;;;;;5094915;28;20117;-76
2023/06/28 00:38:00;;;;;;;8.02;3.17;;;;;;;;;;5094174;28;20044;-76
2023/06/28 00:40:26;;;;;;;10.63;3.20;;;;;;;;;;5094593;28;20036;-76
2023/06/28 00:42:52;;;;;;;7.63;3.20;;;;;;;;;;5094750;28;20374;-76
2023/06/28 00:45:18;;;;;;;8.70;3.10;;;;;;;;;;5077338;28;20040;-76
2023/06/28 00:47:44;;;;;;;9.45;2.97;;;;;;;;;;5094591;28;20553;-76
2023/06/28 00:50:10;;;;;;;7.93;2.60;;;;;;;;;;5093604;28;20158;-76
2023/06/28 00:52:37;;;;;;;5.90;2.95;;;;;;;;;;5094409;28;20493;-76
2023/06/28 00:55:03;;;;;;;10.00;3.63;;;;;;;;;;5093595;28;20071;-76
2023/06/28 00:57:29;;;;;;;6.97;3.20;;;;;;;;;;5077643;28;20040;-76
2023/06/28 00:59:56;;;;;;;8.43;3.15;;;;;;;;;;5077319;28;20477;-76
2023/06/28 01:02:22;;;;;;;6.18;2.80;;;;;;;;;;5076591;28;20039;-76
2023/06/28 01:04:49;;;;;;;8.18;3.22;;;;;;;;;;5094101;28;20112;-76
2023/06/28 01:07:16;;;;;;;7.22;3.13;;;;;;;;;;5094091;28;20108;-76
2023/06/28 01:09:42;;;;;;;7.32;3.10;;;;;;;;;;5093252;28;20047;-76
2023/06/28 01:12:08;;;;;;;8.65;3.00;;;;;;;;;;5092090;28;20085;-76
2023/06/28 01:14:34;;;;;;;12.50;3.92;;;;;;;;;;5093630;28;20032;-76
2023/06/28 01:17:00;;;;;;;8.80;3.35;;;;;;;;;;5093814;28;20051;-76
2023/06/28 01:19:27;;;;;;;8.85;3.17;;;;;;;;;;5076627;28;20157;-76
2023/06/28 01:21:56;;;;;;;10.70;2.90;;;;;;;;;;5093798;28;20386;-76
2023/06/28 01:24:25;;;;;;;7.18;3.10;;;;;;;;;;5094550;28;20048;-76
2023/06/28 01:26:52;;;;;;;7.18;3.05;;;;;;;;;;5076982;28;20110;-76
2023/06/28 01:29:23;;;;;;;6.93;3.00;;;;;;;;;;5093025;28;20083;-78
2023/06/28 01:31:50;;;;;;;7.18;3.30;;;;;;;;;;5093790;28;20047;-78
2023/06/28 01:34:16;;;;;;;8.70;3.47;;;;;;;;;;5074914;28;20036;-78
2023/06/28 01:36:43;;;;;;;8.05;3.22;;;;;;;;;;5093410;28;20040;-78
2023/06/28 01:39:09;;;;;;;6.72;3.08;;;;;;;;;;5093277;28;20480;-79
2023/06/28 01:41:35;;;;;;;6.72;2.88;;;;;;;;;;5093494;28;20044;-78
2023/06/28 01:44:02;;;;;;;7.13;2.97;;;;;;;;;;5093274;28;20048;-78
2023/06/28 01:46:30;;;;;;;9.40;3.40;;;;;;;;;;5093276;28;20441;-79
2023/06/28 01:48:56;;;;;;;7.25;3.08;;;;;;;;;;5093109;28;20044;-79
2023/06/28 01:51:22;;;;;;;10.43;3.00;;;;;;;;;;5092358;28;20052;-79
2023/06/28 01:53:48;;;;;;;8.27;3.10;;;;;;;;;;5093084;28;20081;-78
2023/06/28 01:56:14;;;;;;;9.88;3.10;;;;;;;;;;5093164;28;20441;-78
2023/06/28 01:58:40;;;;;;;5.07;2.60;;;;;;;;;;5093281;28;20392;-78
2023/06/28 02:01:06;;;;;;;9.45;3.08;;;;;;;;;;5072535;28;20151;-79
2023/06/28 02:03:33;;;;;;;6.53;2.65;;;;;;;;;;5092078;28;20036;-78
2023/06/28 02:05:59;;;;;;;8.57;2.85;;;;;;;;;;5074642;28;20093;-79
2023/06/28 02:08:25;;;;;;;9.70;3.00;;;;;;;;;;5092241;28;20561;-78
2023/06/28 02:10:51;;;;;;;8.50;2.70;;;;;;;;;;5092676;28;20370;-78
2023/06/28 02:13:17;;;;;;;6.63;2.80;;;;;;;;;;5092175;28;20044;-78
2023/06/28 02:15:43;;;;;;;6.60;2.78;;;;;;;;;;5092536;28;20043;-78
2023/06/28 02:18:10;;;;;;;7.55;2.90;;;;;;;;;;5045227;28;20044;-79
2023/06/28 02:20:36;;;;;;;9.48;2.70;;;;;;;;;;5078616;28;20527;-78
2023/06/28 02:23:02;;;;;;;5.57;2.65;;;;;;;;;;5093741;28;20071;-79
2023/06/28 02:25:28;;;;;;;5.03;2.47;;;;;;;;;;5092197;28;20485;-78
2023/06/28 02:27:54;;;;;;;7.43;2.92;;;;;;;;;;5092575;28;20061;-78
2023/06/28 02:30:20;;;;;;;6.55;2.70;;;;;;;;;;5091911;28;20127;-78
2023/06/28 02:32:46;;;;;;;4.60;2.40;;;;;;;;;;5092354;28;20450;-78
2023/06/28 02:35:12;;;;;;;5.97;2.50;;;;;;;;;;5092036;28;20055;-78
2023/06/28 02:37:38;;;;;;;5.07;2.50;;;;;;;;;;5092630;28;20043;-78
2023/06/28 02:40:05;;;;;;;5.88;2.60;;;;;;;;;;5094541;28;20043;-77
2023/06/28 02:42:31;;;;;;;5.95;2.30;;;;;;;;;;5092402;28;20385;-77
2023/06/28 02:44:57;;;;;;;6.00;2.10;;;;;;;;;;5091773;28;20047;-77
2023/06/28 02:47:23;;;;;;;8.77;2.13;;;;;;;;;;5092163;28;20492;-77
2023/06/28 02:49:49;;;;;;;6.35;2.20;;;;;;;;;;5075054;28;20056;-78
2023/06/28 02:52:16;;;;;;;4.65;2.20;;;;;;;;;;5091713;28;20044;-78
2023/06/28 02:54:42;;;;;;;3.88;1.92;;;;;;;;;;5092083;28;20032;-78
2023/06/28 02:57:10;;;;;;;7.50;2.72;;;;;;;;;;5092042;28;20050;-78
2023/06/28 02:59:36;;;;;;;6.93;2.17;;;;;;;;;;5091943;28;20043;-78
2023/06/28 03:02:05;;;;;;;6.55;2.50;;;;;;;;;;5092305;28;20381;-78
2023/06/28 03:04:32;;;;;;;6.00;2.40;;;;;;;;;;5091744;28;20036;-78
2023/06/28 03:06:59;;;;;;;6.07;2.63;;;;;;;;;;5076078;28;20523;-78
2023/06/28 03:09:25;;;;;;;5.55;2.63;;;;;;;;;;5091644;28;20040;-78
2023/06/28 03:11:51;;;;;;;6.82;2.78;;;;;;;;;;5091840;28;20408;-77
2023/06/28 03:14:17;;;;;;;4.47;2.80;;;;;;;;;;5092050;28;20040;-77
2023/06/28 03:16:43;;;;;;;7.25;3.35;;;;;;;;;;5061245;28;20207;-77
2023/06/28 03:19:11;;;;;;;8.07;3.40;;;;;;;;;;5091598;28;20040;-77
2023/06/28 03:21:38;;;;;;;5.55;3.50;;;;;;;;;;5074687;28;20040;-77
2023/06/28 03:24:04;;;;;;;7.85;3.20;;;;;;;;;;5093101;28;20043;-78
2023/06/28 03:26:30;;;;;;;8.98;3.38;;;;;;;;;;5090903;28;20040;-79
2023/06/28 03:28:58;;;;;;;7.20;3.40;;;;;;;;;;5074643;28;20485;-79
2023/06/28 03:31:24;;;;;;;5.47;3.50;;;;;;;;;;5090963;28;20123;-77
2023/06/28 03:33:50;;;;;;;8.65;3.47;;;;;;;;;;5091346;28;20040;-77
2023/06/28 03:36:16;;;;;;;6.47;3.30;;;;;;;;;;5091226;28;20040;-77
2023/06/28 03:38:43;;;;;;;7.97;3.80;;;;;;;;;;5090838;28;20078;-78
2023/06/28 03:41:09;;;;;;;9.23;3.90;;;;;;;;;;5091139;28;20043;-77
2023/06/28 03:43:35;;;;;;;10.27;4.55;;;;;;;;;;5091124;28;20397;-78
2023/06/28 03:46:01;;;;;;;7.10;4.60;;;;;;;;;;5090807;28;20066;-78
2023/06/28 03:48:27;;;;;;;7.63;4.28;;;;;;;;;;5090716;28;20169;-77
2023/06/28 03:50:53;;;;;;;7.20;4.53;;;;;;;;;;5090710;28;20138;-77
2023/06/28 03:53:19;;;;;;;8.07;4.43;;;;;;;;;;5090939;28;20081;-76
2023/06/28 03:55:45;;;;;;;8.95;4.90;;;;;;;;;;5090769;28;20519;-80
2023/06/28 03:58:12;;;;;;;7.93;4.68;;;;;;;;;;5091748;28;20118;-80
2023/06/28 04:00:38;;;;;;;8.23;5.38;;;;;;;;;;5090653;28;20544;-77
2023/06/28 04:03:05;;;;;;;9.02;4.85;;;;;;;;;;5089312;28;20476;-80
2023/06/28 04:05:31;;;;;;;9.65;4.80;;;;;;;;;;5072744;28;20052;-80
2023/06/28 04:07:58;;;;;;;10.75;5.13;;;;;;;;;;5090447;28;20453;-81
2023/06/28 04:10:25;;;;;;;8.93;4.85;;;;;;;;;;5067316;28;20455;-79
2023/06/28 04:12:51;;;;;;;10.95;4.78;;;;;;;;;;5086642;28;20128;-81
2023/06/28 04:15:17;;;;;;;14.90;5.72;;;;;;;;;;5090789;28;20044;-81
2023/06/28 04:17:43;;;;;;;8.20;4.50;;;;;;;;;;5090281;28;20095;-82
2023/06/28 04:20:10;;;;;;;12.77;4.63;;;;;;;;;;5073380;28;20044;-80
2023/06/28 04:22:36;;;;;;;7.78;3.95;;;;;;;;;;5090949;28;20071;-79
2023/06/28 04:25:03;;;;;;;8.88;4.00;;;;;;;;;;5091380;28;20129;-81
2023/06/28 04:27:29;;;;;;;7.00;4.35;;;;;;;;;;5090829;28;20115;-80
2023/06/28 04:29:55;;;;;;;10.35;4.57;;;;;;;;;;5092134;28;20551;-81
2023/06/28 04:32:30;;;;;;;9.80;4.10;;;;;;;;;;5091663;28;20047;-80
2023/06/28 04:34:59;;;;;;;7.32;3.70;;;;;;;;;;5091931;28;20044;-80
2023/06/28 04:37:27;;;;;;;7.32;3.88;;;;;;;;;;5091484;28;20089;-78
2023/06/28 04:39:54;;;;;;;10.20;4.03;;;;;;;;;;5091118;28;20116;-78
2023/06/28 04:42:20;;;;;;;8.00;3.80;;;;;;;;;;5090572;28;20055;-77
2023/06/28 04:44:47;;;;;;;5.95;3.72;;;;;;;;;;5090541;28;20493;-77
2023/06/28 04:47:16;;;;;;;13.80;4.35;;;;;;;;;;5091899;28;20040;-78
2023/06/28 04:49:44;;;;;;;8.98;4.13;;;;;;;;;;5090232;28;20050;-79
2023/06/28 04:52:12;;;;;;;8.73;4.45;;;;;;;;;;5073480;28;20048;-79
2023/06/28 04:54:39;;;;;;;9.95;4.72;;;;;;;;;;5090209;28;20097;-79
2023/06/28 04:57:05;;;;;;;15.45;4.97;;;;;;;;;;5073723;28;20036;-78
2023/06/28 04:59:31;;;;;;;11.27;5.38;;;;;;;;;;5090297;28;20388;-78
2023/06/28 05:01:58;;;;;;;14.38;6.50;;;;;;;;;;5090355;28;20047;-77
2023/06/28 05:04:24;;;;;;;14.05;5.28;;;;;;;;;;5073437;28;20072;-76
2023/06/28 05:06:53;;;;;;;12.88;5.72;;;;;;;;;;5073473;28;20412;-76
2023/06/28 05:09:19;;;;;;;11.30;6.00;;;;;;;;;;5075948;28;20066;-76
2023/06/28 05:11:45;;;;;;;14.10;5.82;;;;;;;;;;5093471;28;20084;-76
2023/06/28 05:14:11;;;;;;;11.20;5.80;;;;;;;;;;5094043;28;20089;-76
2023/06/28 05:16:37;;;;;;;9.98;5.05;;;;;;;;;;5093818;28;20369;-74
2023/06/28 05:19:03;;;;;;;12.23;5.43;;;;;;;;;;5093732;28;20054;-84
2023/06/28 05:21:29;;;;;;;11.57;5.30;;;;;;;;;;5093990;28;20044;-84
2023/06/28 05:23:55;;;;;;;14.68;5.78;;;;;;;;;;5076310;28;20123;-83
2023/06/28 05:26:21;;;;;;;12.48;4.90;;;;;;;;;;5094959;28;20048;-83
2023/06/28 05:28:48;;;;;;;12.55;4.95;;;;;;;;;;5093414;28;20516;-83
2023/06/28 05:31:14;;;;;;;10.93;5.10;;;;;;;;;;5093605;28;20119;-82
2023/06/28 05:33:40;;;;;;;11.65;4.90;;;;;;;;;;5076067;28;20051;-75
2023/06/28 05:36:07;;;;;;;8.82;5.28;;;;;;;;;;5076735;28;20044;-74
2023/06/28 05:38:33;;;;;;;11.32;5.05;;;;;;;;;;5076460;28;20036;-75
2023/06/28 05:41:11;;;;;;;10.68;4.97;;;;;;;;;;5076579;28;20044;-74
2023/06/28 05:43:38;;;;;;;12.57;5.38;;;;;;;;;;5093411;28;20480;-76
2023/06/28 05:46:04;;;;;;;9.40;4.80;;;;;;;;;;5087782;28;20041;-75
2023/06/28 05:48:31;;;;;;;11.57;5.55;;;;;;;;;;5068300;28;20044;-75
2023/06/28 05:50:58;;;;;;;11.48;5.32;;;;;;;;;;5075645;28;20048;-76
2023/06/28 05:53:24;;;;;;;10.52;5.00;;;;;;;;;;5076174;28;20130;-75
2023/06/28 05:55:50;;;;;;;9.02;5.03;;;;;;;;;;5092958;28;20507;-76
2023/06/28 05:58:18;;;;;;;10.82;5.25;;;;;;;;;;5093033;28;20078;-75
2023/06/28 06:00:44;;;;;;;14.35;4.97;;;;;;;;;;5075778;28;20036;-75
2023/06/28 06:03:10;;;;;;;10.35;4.97;;;;;;;;;;5093089;28;20040;-75
2023/06/28 06:05:40;;;;;;;10.77;4.90;;;;;;;;;;5093062;28;20091;-76
2023/06/28 06:08:06;;;;;;;12.55;4.88;;;;;;;;;;5076117;28;20050;-76
2023/06/28 06:10:32;;;;;;;10.50;5.07;;;;;;;;;;5093367;28;20397;-75
2023/06/28 06:12:58;;;;;;;9.50;5.10;;;;;;;;;;5075606;28;20039;-76
2023/06/28 06:15:24;;;;;;;15.85;5.47;;;;;;;;;;5092801;28;20040;-75
2023/06/28 06:17:51;;;;;;;10.85;4.85;;;;;;;;;;5076034;28;20054;-76
2023/06/28 06:20:17;;;;;;;11.45;4.50;;;;;;;;;;5092265;28;20036;-75
2023/06/28 06:22:44;;;;;;;9.88;5.10;;;;;;;;;;5092336;28;20070;-76
2023/06/28 06:25:10;;;;;;;13.77;5.25;;;;;;;;;;5075646;28;20044;-76
2023/06/28 06:27:36;;;;;;;10.98;5.40;;;;;;;;;;5092530;28;20062;-76
2023/06/28 06:30:03;;;;;;;14.70;5.30;;;;;;;;;;5092185;28;20050;-77
2023/06/28 06:32:29;;;;;;;10.50;5.10;;;;;;;;;;5092453;28;20116;-77
2023/06/28 06:34:58;;;;;;;10.38;5.13;;;;;;;;;;5091989;28;20058;-77
2023/06/28 06:37:24;;;;;;;10.93;5.55;;;;;;;;;;5092120;28;20043;-77
2023/06/28 06:39:53;;;;;;;11.60;5.60;;;;;;;;;;5075210;28;20097;-76
2023/06/28 06:42:19;;;;;;;13.50;5.25;;;;;;;;;;5075296;28;20113;-76
2023/06/28 06:44:45;;;;;;;8.88;5.25;;;;;;;;;;5092084;28;20404;-76
2023/06/28 06:47:11;;;;;;;9.70;4.85;;;;;;;;;;5075278;28;20079;-76
2023/06/28 06:49:38;;;;;;;12.57;5.25;;;;;;;;;;5092299;28;20503;-76
2023/06/28 06:52:04;;;;;;;13.60;5.85;;;;;;;;;;5074615;28;20052;-76
2023/06/28 06:54:30;;;;;;;10.43;5.20;;;;;;;;;;5091757;28;20122;-76
2023/06/28 06:56:57;;;;;;;9.77;5.40;;;;;;;;;;5091801;28;20396;-76
2023/06/28 06:59:23;;;;;;;11.75;5.22;;;;;;;;;;5091752;28;20046;-76
2023/06/28 07:01:50;;;;;;;10.10;4.90;;;;;;;;;;5091824;28;20500;-76
2023/06/28 07:04:17;;;;;;;11.27;5.60;;;;;;;;;;5091619;28;20052;-77
2023/06/28 07:06:46;;;;;;;11.77;5.68;;;;;;;;;;5091788;28;20040;-77
2023/06/28 07:09:12;;;;;;;11.57;5.15;;;;;;;;;;5091680;28;20531;-78
2023/06/28 07:11:38;;;;;;;10.93;6.15;;;;;;;;;;5091588;28;20051;-78
2023/06/28 07:14:04;;;;;;;11.75;5.43;;;;;;;;;;5091406;28;20048;-78
2023/06/28 07:16:30;;;;;;;9.65;5.45;;;;;;;;;;5091674;28;20493;-77
2023/06/28 07:18:57;;;;;;;11.40;5.68;;;;;;;;;;5091038;28;20048;-77
2023/06/28 07:21:23;;;;;;;9.88;5.80;;;;;;;;;;5074918;28;20406;-78
2023/06/28 07:23:49;;;;;;;12.05;5.53;;;;;;;;;;5090772;28;20040;-78
2023/06/28 07:26:15;;;;;;;13.50;6.22;;;;;;;;;;5074890;28;20051;-77
2023/06/28 07:28:41;;;;;;;10.93;5.50;;;;;;;;;;5091706;28;20078;-78
2023/06/28 07:31:08;;;;;;;13.20;6.47;;;;;;;;;;5090427;28;20032;-78
2023/06/28 07:33:34;;;;;;;10.68;5.88;;;;;;;;;;5090826;28;20043;-77
2023/06/28 07:36:00;;;;;;;12.10;6.40;;;;;;;;;;5090722;28;20043;-78
2023/06/28 07:38:27;;;;;;;10.52;6.50;;;;;;;;;;5091250;28;20047;-77
2023/06/28 07:40:53;;;;;;;12.85;6.68;;;;;;;;;;5090494;28;20047;-77
2023/06/28 07:43:20;;;;;;;11.70;6.38;;;;;;;;;;5091499;28;20059;-78
2023/06/28 07:45:46;;;;;;;13.93;6.53;;;;;;;;;;5090725;28;20047;-77
2023/06/28 07:48:12;;;;;;;12.50;6.80;;;;;;;;;;5074056;28;20488;-77
2023/06/28 07:50:38;;;;;;;12.90;6.43;;;;;;;;;;5090634;28;20056;-77
2023/06/28 07:53:05;;;;;;;13.25;7.07;;;;;;;;;;5091961;28;20063;-76
2023/06/28 07:55:31;;;;;;;13.00;6.88;;;;;;;;;;5090938;28;20086;-77
2023/06/28 07:57:57;;;;;;;11.75;6.95;;;;;;;;;;5073705;28;20032;-76
2023/06/28 08:00:24;;;;;;;10.77;7.20;;;;;;;;;;5091139;28;20401;-78
2023/06/28 08:02:50;;;;;;;13.77;7.30;;;;;;;;;;5090788;28;20043;-78
2023/06/28 08:05:16;;;;;;;14.52;7.30;;;;;;;;;;5074106;28;20043;-77
2023/06/28 08:07:42;;;;;;;14.43;7.20;;;;;;;;;;5073937;28;20047;-78
2023/06/28 08:10:09;;;;;;;15.77;7.75;;;;;;;;;;5090643;28;20489;-77
2023/06/28 08:12:35;;;;;;;19.52;8.70;;;;;;;;;;5090891;28;20040;-78
2023/06/28 08:15:01;;;;;;;15.10;7.93;;;;;;;;;;5077232;28;20451;-77
2023/06/28 08:17:27;;;;;;;15.15;7.97;;;;;;;;;;5074185;28;20123;-77
2023/06/28 08:19:57;;;;;;;15.45;8.63;;;;;;;;;;5070308;28;20545;-78
2023/06/28 08:22:24;;;;;;;18.15;8.73;;;;;;;;;;5074229;28;20044;-78
2023/06/28 08:24:51;;;;;;;15.90;9.55;;;;;;;;;;5092062;28;20048;-78
2023/06/28 08:27:17;;;;;;;17.95;8.70;;;;;;;;;;5073778;28;20024;-78
2023/06/28 08:29:43;;;;;;;16.42;8.57;;;;;;;;;;5090762;28;20036;-78
2023/06/28 08:32:12;;;;;;;19.15;9.18;;;;;;;;;;5091055;28;20512;-78
2023/06/28 08:34:38;;;;;;;18.23;9.70;;;;;;;;;;5092649;28;20040;-78
2023/06/28 08:37:05;;;;;;;16.55;9.55;;;;;;;;;;5090045;28;20036;-78
2023/06/28 08:39:31;;;;;;;18.77;9.77;;;;;;;;;;5090915;28;20032;-79
2023/06/28 08:41:58;;;;;;;15.55;9.15;;;;;;;;;;5056701;28;20047;-78
2023/06/28 08:44:26;;;;;;;17.33;10.05;;;;;;;;;;5093555;28;20036;-77
2023/06/28 08:46:53;;;;;;;18.67;10.55;;;;;;;;;;5094614;28;20504;-76
2023/06/28 08:49:20;;;;;;;20.75;10.82;;;;;;;;;;5094054;28;20074;-77
2023/06/28 08:51:46;;;;;;;16.48;10.30;;;;;;;;;;5094060;28;20052;-77
2023/06/28 08:54:14;;;;;;;20.13;10.73;;;;;;;;;;5093912;28;20052;-77
2023/06/28 08:56:40;;;;;;;18.27;11.02;;;;;;;;;;5094097;28;20036;-78
2023/06/28 08:59:06;;;;;;;18.40;11.02;;;;;;;;;;5076920;28;20072;-78
2023/06/28 09:01:33;;;;;;;22.27;12.10;;;;;;;;;;5077226;28;20044;-77
2023/06/28 09:04:00;;;;;;;20.85;12.38;;;;;;;;;;5093840;28;20119;-77
2023/06/28 09:06:28;;;;;;;18.85;12.57;;;;;;;;;;5094104;28;20397;-77
2023/06/28 09:08:54;;;;;;;19.70;11.85;;;;;;;;;;5094078;28;20054;-77
2023/06/28 09:11:20;;;;;;;21.50;11.93;;;;;;;;;;5076324;28;20067;-77
2023/06/28 09:13:46;;;;;;;17.95;12.45;;;;;;;;;;5093945;28;20040;-77
2023/06/28 09:16:13;;;;;;;19.38;11.98;;;;;;;;;;5076514;28;20125;-77
2023/06/28 09:18:39;;;;;;;15.15;10.80;;;;;;;;;;5093826;28;20036;-77
2023/06/28 09:21:05;;;;;;;18.40;11.48;;;;;;;;;;5076396;28;20040;-77
2023/06/28 09:23:33;;;;;;;16.60;10.38;;;;;;;;;;5077051;28;20051;-78
2023/06/28 09:25:59;;;;;;;15.10;10.52;;;;;;;;;;5094721;28;20040;-77
2023/06/28 09:28:36;;;;;;;16.45;11.35;;;;;;;;;;5076756;28;20122;-77
2023/06/28 09:31:06;;;;;;;13.90;10.23;;;;;;;;;;5093242;28;20056;-77
2023/06/28 09:33:32;;;;;;;17.75;11.60;;;;;;;;;;5093455;28;20408;-76
2023/06/28 09:35:59;;;;;;;14.68;11.25;;;;;;;;;;5093248;28;20038;-76
2023/06/28 09:38:26;;;;;;;18.02;11.65;;;;;;;;;;5092985;28;20093;-77
2023/06/28 09:40:56;;;;;;;15.60;10.27;;;;;;;;;;5093192;28;20115;-77
2023/06/28 09:43:23;;;;;;;13.02;10.60;;;;;;;;;;5092937;28;20055;-77
2023/06/28 09:45:49;;;;;;;14.55;11.32;;;;;;;;;;5093091;28;20044;-76
2023/06/28 09:48:15;;;;;;;15.35;11.70;;;;;;;;;;5092868;28;20048;-77
2023/06/28 09:50:42;;;;;;;13.43;10.88;;;;;;;;;;5093173;28;20512;-76
2023/06/28 09:53:11;;;;;;;15.13;11.57;;;;;;;;;;5092670;28;20044;-77
2023/06/28 09:55:38;;;;;;;16.33;11.63;;;;;;;;;;5092009;28;20040;-76
2023/06/28 09:58:07;;;;;;;14.98;11.52;;;;;;;;;;5076215;28;20043;-78
2023/06/28 10:00:33;;;;;;;14.80;12.55;;;;;;;;;;5076509;28;20385;-77
2023/06/28 10:03:01;;;;;;;17.70;12.43;;;;;;;;;;5093056;28;20399;-76
2023/06/28 10:05:28;;;;;;;18.27;12.32;;;;;;;;;;5092754;28;20492;-77
2023/06/28 10:07:54;;;;;;;15.10;12.40;;;;;;;;;;5092769;28;20193;-76
2023/06/28 10:10:20;;;;;;;18.48;13.80;;;;;;;;;;5092483;28;20468;-76
2023/06/28 10:12:46;;;;;;;17.60;13.35;;;;;;;;;;5092538;28;20126;-75
2023/06/28 10:15:14;;;;;;;15.02;12.90;;;;;;;;;;5092505;28;20036;-77
2023/06/28 10:17:41;;;;;;;20.17;14.18;;;;;;;;;;5061972;28;20099;-76
2023/06/28 10:20:07;;;;;;;18.30;13.27;;;;;;;;;;5092658;28;20054;-76
2023/06/28 10:22:34;;;;;;;19.48;13.55;;;;;;;;;;5093894;28;20044;-75
2023/06/28 10:25:02;;;;;;;17.98;14.68;;;;;;;;;;5092912;28;20057;-76
2023/06/28 10:27:29;;;;;;;22.58;14.70;;;;;;;;;;5075582;28;20052;-77
2023/06/28 10:29:55;;;;;;;19.42;15.25;;;;;;;;;;5092802;28;20050;-75
2023/06/28 10:32:21;;;;;;;19.73;16.15;;;;;;;;;;5091995;28;20040;-78
2023/06/28 10:34:47;;;;;;;19.77;15.57;;;;;;;;;;5092399;28;20119;-76
2023/06/28 10:37:14;;;;;;;23.98;15.88;;;;;;;;;;5091817;28;20047;-76
2023/06/28 10:39:40;;;;;;;22.48;16.02;;;;;;;;;;5092383;28;20032;-77
2023/06/28 10:42:07;;;;;;;21.17;16.35;;;;;;;;;;5092295;28;20043;-77
2023/06/28 10:44:33;;;;;;;22.67;17.45;;;;;;;;;;5092962;28;20071;-76
2023/06/28 10:47:10;;;;;;;24.83;17.17;;;;;;;;;;5075180;28;20035;-76
2023/06/28 10:49:36;;;;;;;24.73;17.92;;;;;;;;;;5078662;28;20127;-75
2023/06/28 10:52:02;;;;;;;23.25;16.80;;;;;;;;;;5091971;28;20563;-75
2023/06/28 10:54:28;;;;;;;28.27;18.15;;;;;;;;;;5091984;28;20044;-75
2023/06/28 10:56:58;;;;;;;23.20;17.40;;;;;;;;;;5091871;28;20032;-75
2023/06/28 10:59:24;;;;;;;24.60;17.05;;;;;;;;;;5091790;28;20036;-76
2023/06/28 11:01:53;;;;;;;25.95;18.05;;;;;;;;;;5092042;28;20393;-76
2023/06/28 11:04:20;;;;;;;26.38;19.15;;;;;;;;;;5074574;28;20519;-78
2023/06/28 11:06:46;;;;;;;28.90;18.55;;;;;;;;;;5074812;28;20036;-79
2023/06/28 11:09:14;;;;;;;30.67;18.92;;;;;;;;;;5091501;28;20044;-77
2023/06/28 11:11:41;;;;;;;27.50;17.98;;;;;;;;;;5092238;28;20075;-78
2023/06/28 11:14:26;;;;;;;26.88;18.45;;;;;;;;;;5091566;28;20036;-77
2023/06/28 11:16:53;;;;;;;25.00;17.88;;;;;;;;;;5091667;28;20089;-77
2023/06/28 11:19:24;;;;;;;30.30;19.02;;;;;;;;;;5090917;28;20118;-77
2023/06/28 11:22:01;;;;;;;29.98;18.40;;;;;;;;;;5091684;28;20048;-77
2023/06/28 11:24:33;;;;;;;27.02;18.73;;;;;;;;;;5091155;28;20072;-77
2023/06/28 11:27:00;;;;;;;26.85;18.30;;;;;;;;;;5074252;28;20039;-77
2023/06/28 11:29:26;;;;;;;30.02;18.30;;;;;;;;;;5091410;28;20054;-77
2023/06/28 11:32:02;;;;;;;24.38;18.15;;;;;;;;;;5091057;28;20075;-77
2023/06/28 11:34:30;;;;;;;;;;;;;;;;;;5091618;28;20489;-77
2023/06/28 11:36:56;;;;;;;30.95;18.73;;;;;;;;;;5074499;28;19963;-76
2023/06/28 11:39:22;;;;;;;27.27;19.08;;;;;;;;;;5090883;28;20476;-77
2023/06/28 11:41:48;;;;;;;28.92;18.15;;;;;;;;;;5091197;28;20044;-77
2023/06/28 11:44:15;;;;;;;31.55;19.42;;;;;;;;;;5074353;28;20070;-76
2023/06/28 11:46:45;;;;;;;30.50;18.90;;;;;;;;;;5090695;28;20040;-77
2023/06/28 11:49:12;;;;;;;27.38;18.52;;;;;;;;;;5091294;28;20562;-76
2023/06/28 11:51:38;;;;;;;31.67;18.48;;;;;;;;;;5090271;28;20048;-77
2023/06/28 11:54:07;;;;;;;26.70;18.40;;;;;;;;;;5091134;28;20578;-77
2023/06/28 11:56:44;;;;;;;28.73;17.92;;;;;;;;;;5090534;28;20074;-75
2023/06/28 11:59:21;;;;;;;27.80;17.75;;;;;;;;;;5090927;28;20126;-76
2023/06/28 12:01:47;;;;;;;29.80;17.67;;;;;;;;;;5090802;28;20498;-76
2023/06/28 12:04:15;;;;;;;30.35;18.10;;;;;;;;;;5090791;28;20048;-77
2023/06/28 12:06:41;;;;;;;27.20;17.48;;;;;;;;;;5090450;28;20058;-75
2023/06/28 12:09:18;;;;;;;25.65;16.40;;;;;;;;;;5073985;28;20044;-74
2023/06/28 12:11:54;;;;;;;25.40;17.75;;;;;;;;;;5086326;28;20048;-76
2023/06/28 12:14:21;;;;;;;25.73;16.63;;;;;;;;;;5090836;28;20048;-74
2023/06/28 12:16:47;;;;;;;28.45;17.67;;;;;;;;;;5090781;28;20449;-77
2023/06/28 12:19:17;;;;;;;24.58;16.90;;;;;;;;;;5077051;28;20357;-74
2023/06/28 12:21:44;;;;;;;26.85;16.52;;;;;;;;;;5094536;28;20083;-74
2023/06/28 12:24:14;;;;;;;26.63;16.70;;;;;;;;;;5095187;28;20461;-77
2023/06/28 12:26:40;;;;;;;24.67;16.63;;;;;;;;;;5094263;28;20052;-74
2023/06/28 12:29:07;;;;;;;24.58;17.17;;;;;;;;;;5094744;28;20065;-74
2023/06/28 12:31:45;;;;;;;29.15;15.95;;;;;;;;;;5094239;28;20043;-74
2023/06/28 12:34:12;;;;;;;26.50;15.80;;;;;;;;;;5081633;28;20365;-74
2023/06/28 12:36:39;;;;;;;26.65;17.40;;;;;;;;;;5094358;28;20047;-75
2023/06/28 12:39:05;;;;;;;23.63;16.38;;;;;;;;;;5095578;28;20044;-74
2023/06/28 12:41:31;;;;;;;29.13;17.27;;;;;;;;;;5094388;28;20040;-74
2023/06/28 12:43:58;;;;;;;26.73;16.45;;;;;;;;;;5094685;28;20428;-74
2023/06/28 12:46:26;;;;;;;28.42;16.48;;;;;;;;;;5094478;28;20032;-74
2023/06/28 12:48:55;;;;;;;24.08;15.90;;;;;;;;;;5094585;28;20505;-75
2023/06/28 12:51:24;;;;;;;25.55;17.05;;;;;;;;;;5094308;28;20127;-74
2023/06/28 12:53:52;;;;;;;28.30;16.85;;;;;;;;;;5094136;28;20130;-73
2023/06/28 12:56:18;;;;;;;24.92;16.65;;;;;;;;;;5094330;28;20063;-74
2023/06/28 12:58:44;;;;;;;21.23;15.45;;;;;;;;;;5076972;28;20507;-74
2023/06/28 13:01:10;;;;;;;29.38;16.98;;;;;;;;;;5094276;28;20044;-74
2023/06/28 13:03:36;;;;;;;32.53;17.45;;;;;;;;;;5093917;28;20044;-74
2023/06/28 13:06:02;;;;;;;28.75;17.77;;;;;;;;;;5095316;28;20047;-75
2023/06/28 13:08:29;;;;;;;28.83;17.33;;;;;;;;;;5094085;28;20501;-76
2023/06/28 13:10:56;;;;;;;26.00;17.65;;;;;;;;;;5088428;28;20040;-74
2023/06/28 13:13:22;;;;;;;34.33;16.90;;;;;;;;;;5077136;28;20519;-74
2023/06/28 13:15:48;;;;;;;28.15;17.60;;;;;;;;;;5093301;28;20118;-75
2023/06/28 13:18:15;;;;;;;29.45;18.77;;;;;;;;;;5093920;28;20043;-75
2023/06/28 13:20:41;;;;;;;28.00;18.85;;;;;;;;;;5094687;28;20097;-77
2023/06/28 13:23:07;;;;;;;27.88;20.25;;;;;;;;;;5095119;28;20071;-75
2023/06/28 13:25:33;;;;;;;27.08;19.23;;;;;;;;;;5094524;28;20036;-75
2023/06/28 13:27:59;;;;;;;29.58;19.73;;;;;;;;;;5076705;28;20070;-75
2023/06/28 13:30:25;;;;;;;26.35;20.05;;;;;;;;;;5093688;28;20063;-74
2023/06/28 13:32:53;;;;;;;30.52;20.55;;;;;;;;;;5093336;28;20484;-74
2023/06/28 13:35:19;;;;;;;29.58;19.60;;;;;;;;;;5093586;28;20055;-74
2023/06/28 13:37:48;;;;;;;29.00;19.73;;;;;;;;;;5093285;28;20043;-74
2023/06/28 13:40:15;;;;;;;31.08;21.33;;;;;;;;;;5094775;28;20043;-73
2023/06/28 13:42:43;;;;;;;27.20;19.73;;;;;;;;;;5076400;28;20052;-75
2023/06/28 13:45:12;;;;;;;28.10;20.20;;;;;;;;;;5093547;28;20417;-74
2023/06/28 13:47:38;;;;;;;27.50;17.50;;;;;;;;;;5093109;28;20489;-74
2023/06/28 13:50:04;;;;;;;31.98;20.85;;;;;;;;;;5093252;28;20044;-75
2023/06/28 13:52:31;;;;;;;29.25;19.25;;;;;;;;;;5093042;28;20058;-74
2023/06/28 13:54:57;;;;;;;27.23;19.67;;;;;;;;;;5092832;28;20076;-73
2023/06/28 13:57:23;;;;;;;27.20;20.08;;;;;;;;;;5079058;28;20044;-73
2023/06/28 13:59:50;;;;;;;25.75;19.08;;;;;;;;;;5075925;28;20047;-74
2023/06/28 14:02:19;;;;;;;33.28;19.55;;;;;;;;;;5093230;28;20032;-73
2023/06/28 14:04:45;;;;;;;23.55;17.25;;;;;;;;;;5093913;28;20047;-75
2023/06/28 14:07:12;;;;;;;32.42;20.77;;;;;;;;;;5093233;28;20512;-75
2023/06/28 14:09:38;;;;;;;27.05;18.10;;;;;;;;;;5092666;28;20364;-75
2023/06/28 14:12:04;;;;;;;29.88;18.77;;;;;;;;;;5059454;28;20047;-75
2023/06/28 14:14:30;;;;;;;34.47;20.95;;;;;;;;;;5093964;28;20044;-75
2023/06/28 14:16:56;;;;;;;32.50;20.02;;;;;;;;;;5092693;28;20400;-75
2023/06/28 14:19:22;;;;;;;29.75;20.08;;;;;;;;;;5092755;28;20043;-75
2023/06/28 14:21:48;;;;;;;34.42;21.00;;;;;;;;;;5092485;28;20447;-76
2023/06/28 14:24:14;;;;;;;34.85;21.63;;;;;;;;;;5092776;28;20124;-74
2023/06/28 14:26:41;;;;;;;34.05;21.50;;;;;;;;;;5092898;28;20070;-74